Observation data for Muleshoe on 06/20/2019      Previous  Date  Next       Current Mesonet Observations  Soil Data  Daily Summary Page  Observations in Plain Language
KMUS 200500Z 10006KT 21/16 A2988 RMK A01 T02080155  RH  075%=      5-min Rain = 0
KMUS 200505Z 11007KT 21/16 A2987 RMK A01 T02070156  RH  076%=      5-min Rain = 0
KMUS 200510Z 11008KT 21/16 A2987 RMK A01 T02080157  RH  076%=      5-min Rain = 0
KMUS 200515Z 11008KT 21/16 A2987 RMK A01 T02100157  RH  075%=      5-min Rain = 0
KMUS 200520Z 12007KT 21/16 A2987 RMK A01 T02090158  RH  076%=      5-min Rain = 0
KMUS 200525Z 11006KT 21/16 A2987 RMK A01 T02080158  RH  076%=      5-min Rain = 0
KMUS 200530Z 11007KT 21/16 A2988 RMK A01 T02060158  RH  078%=      5-min Rain = 0
KMUS 200535Z 11006KT 21/16 A2988 RMK A01 T02050159  RH  078%=      5-min Rain = 0
KMUS 200540Z 11005KT 20/16 A2988 RMK A01 T02030159  RH  080%=      5-min Rain = 0
KMUS 200545Z 12005KT 20/16 A2988 RMK A01 T02000159  RH  081%=      5-min Rain = 0
KMUS 200550Z 12004KT 20/16 A2988 RMK A01 T01990159  RH  082%=      5-min Rain = 0
KMUS 200555Z 13003KT 20/16 A2988 RMK A01 T01980159  RH  082%=      5-min Rain = 0
KMUS 200600Z 12002KT 20/16 A2988 RMK A01 T01970158  RH  082%=      5-min Rain = 0
KMUS 200605Z 06001KT 20/16 A2988 RMK A01 T01960158  RH  082%=      5-min Rain = 0
KMUS 200610Z 04002KT 19/16 A2988 RMK A01 T01940157  RH  083%=      5-min Rain = 0
KMUS 200615Z 05002KT 19/16 A2988 RMK A01 T01900157  RH  085%=      5-min Rain = 0
KMUS 200620Z 08002KT 19/16 A2988 RMK A01 T01920159  RH  086%=      5-min Rain = 0
KMUS 200625Z 11002KT 19/16 A2988 RMK A01 T01940160  RH  085%=      5-min Rain = 0
KMUS 200630Z 12002KT 19/16 A2988 RMK A01 T01940160  RH  085%=      5-min Rain = 0
KMUS 200635Z 11003KT 20/16 A2987 RMK A01 T01950161  RH  084%=      5-min Rain = 0
KMUS 200640Z 11003KT 20/16 A2987 RMK A01 T01950161  RH  085%=      5-min Rain = 0
KMUS 200645Z 12003KT 19/16 A2987 RMK A01 T01930160  RH  085%=      5-min Rain = 0
KMUS 200650Z 11003KT 19/16 A2987 RMK A01 T01910160  RH  086%=      5-min Rain = 0
KMUS 200655Z 10004KT 19/16 A2987 RMK A01 T01880159  RH  087%=      5-min Rain = 0
KMUS 200700Z 09005KT 19/16 A2987 RMK A01 T01870160  RH  089%=      5-min Rain = 0
KMUS 200705Z 06004KT 19/16 A2987 RMK A01 T01870162  RH  089%=      5-min Rain = 0
KMUS 200710Z 06004KT 19/16 A2987 RMK A01 T01890163  RH  089%=      5-min Rain = 0
KMUS 200715Z 07003KT 19/16 A2988 RMK A01 T01900162  RH  088%=      5-min Rain = 0
KMUS 200720Z 07003KT 19/16 A2988 RMK A01 T01910162  RH  087%=      5-min Rain = 0
KMUS 200725Z 08003KT 19/16 A2987 RMK A01 T01910161  RH  087%=      5-min Rain = 0
KMUS 200730Z 09004KT 19/16 A2987 RMK A01 T01900160  RH  087%=      5-min Rain = 0
KMUS 200735Z 08005KT 19/16 A2987 RMK A01 T01870159  RH  088%=      5-min Rain = 0
KMUS 200740Z 09004KT 19/16 A2987 RMK A01 T01860159  RH  089%=      5-min Rain = 0
KMUS 200745Z 10004KT 19/16 A2987 RMK A01 T01850159  RH  089%=      5-min Rain = 0
KMUS 200750Z 12004KT 18/16 A2987 RMK A01 T01830158  RH  089%=      5-min Rain = 0
KMUS 200755Z 15005KT 18/16 A2986 RMK A01 T01830158  RH  090%=      5-min Rain = 0
KMUS 200800Z 15007KT 19/17 A2986 RMK A01 T01880166  RH  091%=      5-min Rain = 0
KMUS 200805Z 15008KT 20/17 A2986 RMK A01 T01950171  RH  090%=      5-min Rain = 0
KMUS 200810Z 15006KT 20/17 A2986 RMK A01 T01980171  RH  089%=      5-min Rain = 0
KMUS 200815Z 15006KT 20/17 A2986 RMK A01 T01980171  RH  089%=      5-min Rain = 0
KMUS 200820Z 14007KT 20/17 A2985 RMK A01 T01980171  RH  089%=      5-min Rain = 0
KMUS 200825Z 14006KT 20/17 A2985 RMK A01 T01980170  RH  088%=      5-min Rain = 0
KMUS 200830Z 14005KT 20/17 A2985 RMK A01 T01970169  RH  088%=      5-min Rain = 0
KMUS 200835Z 15006KT 20/17 A2985 RMK A01 T01960169  RH  088%=      5-min Rain = 0
KMUS 200840Z 15006KT 20/17 A2985 RMK A01 T01950168  RH  089%=      5-min Rain = 0
KMUS 200845Z 16004KT 19/17 A2985 RMK A01 T01940167  RH  088%=      5-min Rain = 0
KMUS 200850Z 16003KT 19/17 A2985 RMK A01 T01930165  RH  088%=      5-min Rain = 0
KMUS 200855Z 18003KT 19/16 A2985 RMK A01 T01920164  RH  088%=      5-min Rain = 0
KMUS 200900Z 15001KT 19/16 A2985 RMK A01 T01910163  RH  088%=      5-min Rain = 0
KMUS 200905Z 17001KT 19/16 A2985 RMK A01 T01900162  RH  088%=      5-min Rain = 0
KMUS 200910Z 14000KT 19/16 A2985 RMK A01 T01880161  RH  088%=      5-min Rain = 0
KMUS 200915Z 17001KT 19/16 A2985 RMK A01 T01880162  RH  089%=      5-min Rain = 0
KMUS 200920Z 14002KT 19/16 A2985 RMK A01 T01870162  RH  090%=      5-min Rain = 0
KMUS 200925Z 20001KT 19/16 A2985 RMK A01 T01870163  RH  090%=      5-min Rain = 0
KMUS 200930Z 25001KT 19/16 A2985 RMK A01 T01870163  RH  090%=      5-min Rain = 0
KMUS 200935Z 22002KT 19/16 A2985 RMK A01 T01870164  RH  091%=      5-min Rain = 0
KMUS 200940Z 22002KT 19/16 A2986 RMK A01 T01860163  RH  091%=      5-min Rain = 0
KMUS 200945Z 23003KT 18/16 A2986 RMK A01 T01840161  RH  091%=      5-min Rain = 0
KMUS 200950Z 28003KT 18/16 A2986 RMK A01 T01800158  RH  091%=      5-min Rain = 0
KMUS 200955Z 28004KT 18/16 A2986 RMK A01 T01760156  RH  092%=      5-min Rain = 0
KMUS 201000Z 26004KT 17/16 A2986 RMK A01 T01740155  RH  093%=      5-min Rain = 0
KMUS 201005Z 28004KT 17/15 A2986 RMK A01 T01720154  RH  093%=      5-min Rain = 0
KMUS 201010Z 28004KT 17/15 A2986 RMK A01 T01710154  RH  094%=      5-min Rain = 0
KMUS 201015Z 28003KT 17/15 A2986 RMK A01 T01700153  RH  094%=      5-min Rain = 0
KMUS 201020Z 32004KT 17/15 A2986 RMK A01 T01670150  RH  094%=      5-min Rain = 0
KMUS 201025Z 29003KT 17/15 A2986 RMK A01 T01650149  RH  094%=      5-min Rain = 0
KMUS 201030Z 29003KT 16/15 A2986 RMK A01 T01620146  RH  094%=      5-min Rain = 0
KMUS 201035Z 26003KT 16/15 A2986 RMK A01 T01600145  RH  095%=      5-min Rain = 0
KMUS 201040Z 24004KT 16/14 A2986 RMK A01 T01570142  RH  095%=      5-min Rain = 0
KMUS 201045Z 26003KT 15/14 A2986 RMK A01 T01540140  RH  095%=      5-min Rain = 0
KMUS 201050Z 33002KT 16/14 A2986 RMK A01 T01550142  RH  096%=      5-min Rain = 0
KMUS 201055Z 33002KT 15/14 A2986 RMK A01 T01530140  RH  096%=      5-min Rain = 0
KMUS 201100Z 31002KT 15/14 A2986 RMK A01 T01530140  RH  096%=      5-min Rain = 0
KMUS 201105Z 30002KT 15/14 A2986 RMK A01 T01510137  RH  096%=      5-min Rain = 0
KMUS 201110Z 28002KT 15/14 A2986 RMK A01 T01470135  RH  096%=      5-min Rain = 0
KMUS 201115Z 29001KT 15/13 A2986 RMK A01 T01450133  RH  096%=      5-min Rain = 0
KMUS 201120Z 31000KT 14/13 A2986 RMK A01 T01440133  RH  097%=      5-min Rain = 0
KMUS 201125Z 31000KT 14/13 A2986 RMK A01 T01440132  RH  097%=      5-min Rain = 0
KMUS 201130Z 31001KT 14/13 A2986 RMK A01 T01420131  RH  097%=      5-min Rain = 0
KMUS 201135Z 31001KT 14/13 A2986 RMK A01 T01430132  RH  097%=      5-min Rain = 0
KMUS 201140Z 00000KT 14/13 A2986 RMK A01 T01420131  RH  097%=      5-min Rain = 0
KMUS 201145Z 00000KT 14/13 A2986 RMK A01 T01420131  RH  097%=      5-min Rain = 0
KMUS 201150Z 15001KT 14/13 A2986 RMK A01 T01410130  RH  097%=      5-min Rain = 0
KMUS 201155Z 32002KT 14/13 A2987 RMK A01 T01410131  RH  098%=      5-min Rain = 0
KMUS 201200Z 33001KT 15/14 A2987 RMK A01 T01450135  RH  098%=      5-min Rain = 0
KMUS 201205Z 31001KT 14/13 A2987 RMK A01 T01440133  RH  097%=      5-min Rain = 0
KMUS 201210Z 22000KT 14/13 A2987 RMK A01 T01440134  RH  098%=      5-min Rain = 0
KMUS 201215Z 29000KT 15/14 A2987 RMK A01 T01460137  RH  098%=      5-min Rain = 0
KMUS 201220Z 19001KT 15/14 A2986 RMK A01 T01500140  RH  098%=      5-min Rain = 0
KMUS 201225Z 19000KT 16/15 A2987 RMK A01 T01550146  RH  098%=      5-min Rain = 0
KMUS 201230Z 22001KT 16/15 A2987 RMK A01 T01600150  RH  098%=      5-min Rain = 0
KMUS 201235Z 23002KT 17/16 A2987 RMK A01 T01650155  RH  098%=      5-min Rain = 0
KMUS 201240Z 19002KT 17/16 A2987 RMK A01 T01700160  RH  098%=      5-min Rain = 0
KMUS 201245Z 20002KT 17/16 A2987 RMK A01 T01730162  RH  098%=      5-min Rain = 0
KMUS 201250Z 25003KT 18/17 A2987 RMK A01 T01760165  RH  098%=      5-min Rain = 0
KMUS 201255Z 23001KT 18/17 A2987 RMK A01 T01790168  RH  098%=      5-min Rain = 0
KMUS 201300Z 23003KT 18/17 A2987 RMK A01 T01810168  RH  097%=      5-min Rain = 0
KMUS 201305Z 24003KT 18/17 A2988 RMK A01 T01840169  RH  096%=      5-min Rain = 0
KMUS 201310Z 25002KT 19/17 A2988 RMK A01 T01860169  RH  095%=      5-min Rain = 0
KMUS 201315Z 26004KT 19/17 A2988 RMK A01 T01880168  RH  092%=      5-min Rain = 0
KMUS 201320Z 26003KT 19/17 A2988 RMK A01 T01910169  RH  091%=      5-min Rain = 0
KMUS 201325Z 27004KT 19/17 A2988 RMK A01 T01940166  RH  088%=      5-min Rain = 0
KMUS 201330Z 29003KT 20/17 A2988 RMK A01 T01960165  RH  086%=      5-min Rain = 0
KMUS 201335Z 24002KT 20/16 A2988 RMK A01 T01980161  RH  083%=      5-min Rain = 0
KMUS 201340Z 25006KT 20/16 A2989 RMK A01 T02020161  RH  081%=      5-min Rain = 0
KMUS 201350Z 26009KT 21/15 A2989 RMK A01 T02060145  RH  071%=      5-min Rain = 0
KMUS 201355Z 26009KT 21/14 A2989 RMK A01 T02080143  RH  069%=      5-min Rain = 0
KMUS 201400Z 26008G13KT 21/15 A2989 RMK A01 T02100146  RH  070%=      5-min Rain = 0
KMUS 201405Z 26006KT 21/15 A2989 RMK A01 T02130149  RH  070%=      5-min Rain = 0
KMUS 201410Z 27007KT 22/15 A2989 RMK A01 T02170149  RH  068%=      5-min Rain = 0
KMUS 201415Z 27009KT 22/14 A2989 RMK A01 T02220140  RH  062%=      5-min Rain = 0
KMUS 201420Z 27007KT 23/14 A2989 RMK A01 T02280139  RH  060%=      5-min Rain = 0
KMUS 201425Z 27007KT 23/13 A2989 RMK A01 T02340133  RH  055%=      5-min Rain = 0
KMUS 201430Z 27009KT 24/12 A2989 RMK A01 T02380119  RH  049%=      5-min Rain = 0
KMUS 201435Z 27008KT 24/12 A2989 RMK A01 T02420121  RH  048%=      5-min Rain = 0
KMUS 201440Z 27008KT 25/12 A2989 RMK A01 T02450121  RH  048%=      5-min Rain = 0
KMUS 201445Z 27008KT 25/12 A2989 RMK A01 T02480121  RH  047%=      5-min Rain = 0
KMUS 201450Z 27007KT 25/12 A2989 RMK A01 T02520122  RH  046%=      5-min Rain = 0
KMUS 201455Z 27008KT 26/11 A2989 RMK A01 T02570114  RH  042%=      5-min Rain = 0
KMUS 201500Z 27008KT 26/11 A2989 RMK A01 T02600107  RH  040%=      5-min Rain = 0
KMUS 201505Z 27007KT 27/11 A2989 RMK A01 T02650107  RH  038%=      5-min Rain = 0
KMUS 201510Z 28006KT 27/10 A2989 RMK A01 T02710101  RH  036%=      5-min Rain = 0
KMUS 201515Z 26005KT 28/11 A2989 RMK A01 T02750106  RH  036%=      5-min Rain = 0
KMUS 201520Z 26006KT 28/10 A2989 RMK A01 T02770101  RH  034%=      5-min Rain = 0
KMUS 201525Z 27006KT 28/09 A2989 RMK A01 T02810093  RH  032%=      5-min Rain = 0
KMUS 201530Z 27006KT 29/09 A2988 RMK A01 T02850094  RH  031%=      5-min Rain = 0
KMUS 201535Z 27006KT 29/10 A2988 RMK A01 T02880096  RH  031%=      5-min Rain = 0
KMUS 201540Z 27006KT 29/10 A2988 RMK A01 T02900097  RH  031%=      5-min Rain = 0
KMUS 201545Z 26007KT 29/10 A2988 RMK A01 T02930098  RH  031%=      5-min Rain = 0
KMUS 201550Z 26007KT 30/10 A2988 RMK A01 T02960102  RH  031%=      5-min Rain = 0
KMUS 201555Z 26008KT 30/10 A2988 RMK A01 T02990103  RH  031%=      5-min Rain = 0
KMUS 201600Z 26007KT 30/10 A2988 RMK A01 T03010096  RH  029%=      5-min Rain = 0
KMUS 201605Z 26007KT 30/10 A2988 RMK A01 T03040099  RH  029%=      5-min Rain = 0
KMUS 201610Z 26007KT 31/10 A2988 RMK A01 T03070100  RH  029%=      5-min Rain = 0
KMUS 201615Z 26006KT 31/10 A2988 RMK A01 T03090102  RH  029%=      5-min Rain = 0
KMUS 201620Z 27005KT 31/10 A2988 RMK A01 T03100097  RH  028%=      5-min Rain = 0
KMUS 201625Z 26005KT 31/09 A2987 RMK A01 T03120094  RH  027%=      5-min Rain = 0
KMUS 201630Z 27005KT 31/09 A2987 RMK A01 T03140086  RH  025%=      5-min Rain = 0
KMUS 201635Z 27005KT 32/09 A2987 RMK A01 T03160087  RH  025%=      5-min Rain = 0
KMUS 201640Z 27005KT 32/08 A2987 RMK A01 T03200083  RH  024%=      5-min Rain = 0
KMUS 201645Z 26004KT 32/10 A2987 RMK A01 T03220098  RH  026%=      5-min Rain = 0
KMUS 201650Z 26005KT 32/09 A2987 RMK A01 T03230092  RH  025%=      5-min Rain = 0
KMUS 201655Z 25006KT 32/09 A2988 RMK A01 T03240091  RH  024%=      5-min Rain = 0
KMUS 201700Z 26006KT 33/09 A2988 RMK A01 T03270087  RH  024%=      5-min Rain = 0
KMUS 201705Z 25005KT 33/09 A2987 RMK A01 T03280088  RH  024%=      5-min Rain = 0
KMUS 201710Z 23006KT 33/09 A2987 RMK A01 T03300091  RH  024%=      5-min Rain = 0
KMUS 201715Z 25007KT 33/09 A2987 RMK A01 T03320091  RH  023%=      5-min Rain = 0
KMUS 201720Z 25006KT 33/08 A2987 RMK A01 T03340082  RH  022%=      5-min Rain = 0
KMUS 201725Z 24008KT 33/08 A2987 RMK A01 T03340082  RH  022%=      5-min Rain = 0
KMUS 201730Z 25007KT 34/08 A2987 RMK A01 T03350084  RH  022%=      5-min Rain = 0
KMUS 201735Z 24005KT 34/07 A2987 RMK A01 T03350068  RH  020%=      5-min Rain = 0
KMUS 201740Z 26005KT 34/08 A2987 RMK A01 T03370081  RH  021%=      5-min Rain = 0
KMUS 201745Z 22004KT 34/09 A2987 RMK A01 T03380087  RH  022%=      5-min Rain = 0
KMUS 201750Z 20005KT 34/09 A2987 RMK A01 T03390085  RH  022%=      5-min Rain = 0
KMUS 201755Z 22006KT 34/09 A2987 RMK A01 T03390090  RH  022%=      5-min Rain = 0
KMUS 201800Z 24006G11KT 34/09 A2987 RMK A01 T03400085  RH  022%=      5-min Rain = 0
KMUS 201805Z 23006KT 34/08 A2987 RMK A01 T03400079  RH  021%=      5-min Rain = 0
KMUS 201810Z 23005KT 34/08 A2987 RMK A01 T03400080  RH  021%=      5-min Rain = 0
KMUS 201815Z 30003G8KT 34/07 A2987 RMK A01 T03420067  RH  019%=      5-min Rain = 0
KMUS 201820Z 22005G10KT 34/06 A2987 RMK A01 T03420062  RH  018%=      5-min Rain = 0
KMUS 201825Z 21005KT 34/06 A2987 RMK A01 T03420063  RH  018%=      5-min Rain = 0
KMUS 201830Z 22005KT 34/07 A2987 RMK A01 T03440067  RH  019%=      5-min Rain = 0
KMUS 201835Z 23005G10KT 35/04 A2986 RMK A01 T03450037  RH  015%=      5-min Rain = 0
KMUS 201840Z 22003KT 35/04 A2986 RMK A01 T03460039  RH  015%=      5-min Rain = 0
KMUS 201845Z 24004KT 35/06 A2986 RMK A01 T03460056  RH  017%=      5-min Rain = 0
KMUS 201850Z 20005KT 35/06 A2986 RMK A01 T03490063  RH  018%=      5-min Rain = 0
KMUS 201855Z 18004G10KT 35/05 A2986 RMK A01 T03490051  RH  016%=      5-min Rain = 0
KMUS 201900Z 22012KT 35/04 A2986 RMK A01 T03520042  RH  015%=      5-min Rain = 0
KMUS 201905Z 25010KT 35/03 A2985 RMK A01 T03520027  RH  013%=      5-min Rain = 0
KMUS 201910Z 25012G18KT 35/04 A2985 RMK A01 T03530035  RH  014%=      5-min Rain = 0
KMUS 201915Z 22010KT 36/03 A2985 RMK A01 T03550032  RH  014%=      5-min Rain = 0
KMUS 201920Z 21009KT 36/04 A2985 RMK A01 T03560035  RH  014%=      5-min Rain = 0
KMUS 201925Z 23010G15KT 36/04 A2985 RMK A01 T03570036  RH  014%=      5-min Rain = 0
KMUS 201930Z 24010G17KT 36/03 A2985 RMK A01 T03570033  RH  014%=      5-min Rain = 0
KMUS 201935Z 25011KT 36/03 A2985 RMK A01 T03580032  RH  013%=      5-min Rain = 0
KMUS 201940Z 25012G17KT 36/03 A2984 RMK A01 T03580034  RH  014%=      5-min Rain = 0
KMUS 201945Z 25014G20KT 36/03 A2984 RMK A01 T03580027  RH  013%=      5-min Rain = 0
KMUS 201950Z 26013G21KT 36/03 A2984 RMK A01 T03580029  RH  013%=      5-min Rain = 0
KMUS 201955Z 24013G20KT 36/02 A2984 RMK A01 T03580022  RH  012%=      5-min Rain = 0
KMUS 202000Z 24014G19KT 36/02 A2984 RMK A01 T03590024  RH  013%=      5-min Rain = 0
KMUS 202005Z 24013G18KT 36/04 A2984 RMK A01 T03600036  RH  014%=      5-min Rain = 0
KMUS 202010Z 24011KT 36/03 A2983 RMK A01 T03600025  RH  013%=      5-min Rain = 0
KMUS 202015Z 24012G18KT 36/03 A2983 RMK A01 T03590029  RH  013%=      5-min Rain = 0
KMUS 202020Z 22013G19KT 36/03 A2983 RMK A01 T03610028  RH  013%=      5-min Rain = 0
KMUS 202025Z 24013KT 36/03 A2983 RMK A01 T03620029  RH  013%=      5-min Rain = 0
KMUS 202030Z 25011KT 36/03 A2983 RMK A01 T03570025  RH  013%=      5-min Rain = 0
KMUS 202035Z 26011KT 36/02 A2982 RMK A01 T03600021  RH  012%=      5-min Rain = 0
KMUS 202040Z 26011KT 36/02 A2982 RMK A01 T03590024  RH  013%=      5-min Rain = 0
KMUS 202045Z 26011G16KT 35/02 A2982 RMK A01 T03520022  RH  013%=      5-min Rain = 0
KMUS 202050Z 25006KT 35/02 A2982 RMK A01 T03530023  RH  013%=      5-min Rain = 0
KMUS 202055Z 23004KT 36/02 A2982 RMK A01 T03610022  RH  012%=      5-min Rain = 0
KMUS 202100Z 24011KT 36/03 A2982 RMK A01 T03630032  RH  013%=      5-min Rain = 0
KMUS 202105Z 25010KT 35/04 A2982 RMK A01 T03540037  RH  014%=      5-min Rain = 0
KMUS 202110Z 25011KT 36/02 A2981 RMK A01 T03590022  RH  012%=      5-min Rain = 0
KMUS 202115Z 23009KT 36/03 A2981 RMK A01 T03620027  RH  013%=      5-min Rain = 0
KMUS 202120Z 22009G14KT 36/02 A2981 RMK A01 T03620021  RH  012%=      5-min Rain = 0
KMUS 202125Z 21007KT 36/02 A2981 RMK A01 T03620017  RH  012%=      5-min Rain = 0
KMUS 202130Z 23008KT 36/02 A2981 RMK A01 T03550020  RH  012%=      5-min Rain = 0
KMUS 202135Z 23009G14KT 36/03 A298 RMK A01 T03560027  RH  013%=      5-min Rain = 0
KMUS 202140Z 23010KT 35/03 A298 RMK A01 T03500027  RH  013%=      5-min Rain = 0
KMUS 202145Z 23008KT 34/04 A298 RMK A01 T03390038  RH  015%=      5-min Rain = 0
KMUS 202150Z 23006KT 33/06 A298 RMK A01 T03340062  RH  019%=      5-min Rain = 0
KMUS 202155Z 22005KT 33/06 A298 RMK A01 T03320064  RH  019%=      5-min Rain = 0
KMUS 202200Z 22003KT 33/09 A298 RMK A01 T03340086  RH  022%=      5-min Rain = 0
KMUS 202205Z 21003KT 34/06 A298 RMK A01 T03420062  RH  018%=      5-min Rain = 0
KMUS 202210Z 18007G12KT 36/04 A298 RMK A01 T03550042  RH  015%=      5-min Rain = 0
KMUS 202215Z 20009KT 36/03 A298 RMK A01 T03590034  RH  013%=      5-min Rain = 0
KMUS 202220Z 19011KT 36/03 A298 RMK A01 T03600033  RH  013%=      5-min Rain = 0
KMUS 202225Z 19010KT 36/03 A298 RMK A01 T03590032  RH  013%=      5-min Rain = 0
KMUS 202230Z 19009KT 35/03 A2979 RMK A01 T03530031  RH  014%=      5-min Rain = 0
KMUS 202235Z 18008KT 35/04 A2979 RMK A01 T03470042  RH  015%=      5-min Rain = 0
KMUS 202240Z 18006KT 35/05 A2979 RMK A01 T03480047  RH  016%=      5-min Rain = 0
KMUS 202245Z 18006KT 35/02 A2979 RMK A01 T03540024  RH  013%=      5-min Rain = 0
KMUS 202250Z 17007KT 35/03 A2979 RMK A01 T03460033  RH  014%=      5-min Rain = 0
KMUS 202255Z 15007KT 34/05 A2979 RMK A01 T03380051  RH  017%=      5-min Rain = 0
KMUS 202300Z 15005KT 34/06 A2979 RMK A01 T03400062  RH  018%=      5-min Rain = 0
KMUS 202305Z 16004KT 35/04 A2979 RMK A01 T03510042  RH  015%=      5-min Rain = 0
KMUS 202310Z 18003KT 36/03 A2978 RMK A01 T03550027  RH  013%=      5-min Rain = 0
KMUS 202315Z 21007KT 36/04 A2978 RMK A01 T03570037  RH  014%=      5-min Rain = 0
KMUS 202320Z 19010G15KT 35/04 A2978 RMK A01 T03540036  RH  014%=      5-min Rain = 0
KMUS 202325Z 19012KT 35/02 A2978 RMK A01 T03510020  RH  013%=      5-min Rain = 0
KMUS 202330Z 19011KT 35/03 A2978 RMK A01 T03500025  RH  013%=      5-min Rain = 0
KMUS 202335Z 20011KT 35/03 A2978 RMK A01 T03510029  RH  014%=      5-min Rain = 0
KMUS 202340Z 20012G17KT 35/03 A2977 RMK A01 T03460031  RH  014%=      5-min Rain = 0
KMUS 202345Z 20011KT 34/03 A2977 RMK A01 T03370027  RH  014%=      5-min Rain = 0
KMUS 202350Z 20009KT 33/04 A2977 RMK A01 T03310042  RH  017%=      5-min Rain = 0
KMUS 202355Z 20013G21KT 34/02 A2977 RMK A01 T03390022  RH  014%=      5-min Rain = 0
KMUS 210000Z 19012G17KT 35/03 A2977 RMK A01 T03450025  RH  014%=      5-min Rain = 0
KMUS 210005Z 21010KT 34/03 A2977 RMK A01 T03420033  RH  015%=      5-min Rain = 0
KMUS 210010Z 21012KT 34/03 A2977 RMK A01 T03400033  RH  015%=      5-min Rain = 0
KMUS 210015Z 20011KT 34/03 A2977 RMK A01 T03390034  RH  015%=      5-min Rain = 0
KMUS 210020Z 20010KT 33/05 A2977 RMK A01 T03320045  RH  017%=      5-min Rain = 0
KMUS 210025Z 20009KT 32/06 A2977 RMK A01 T03230057  RH  019%=      5-min Rain = 0
KMUS 210030Z 20009KT 32/06 A2977 RMK A01 T03160063  RH  021%=      5-min Rain = 0
KMUS 210035Z 21010KT 31/06 A2977 RMK A01 T03110060  RH  021%=      5-min Rain = 0
KMUS 210040Z 22011G16KT 31/04 A2978 RMK A01 T03120040  RH  018%=      5-min Rain = 0
KMUS 210045Z 22011KT 31/04 A2978 RMK A01 T03110041  RH  019%=      5-min Rain = 0
KMUS 210050Z 22010G16KT 31/04 A2978 RMK A01 T03070043  RH  019%=      5-min Rain = 0
KMUS 210055Z 23011KT 31/03 A2977 RMK A01 T03140032  RH  017%=      5-min Rain = 0
KMUS 210100Z 22011KT 32/02 A2977 RMK A01 T03220018  RH  015%=      5-min Rain = 0
KMUS 210105Z 22012KT 32/02 A2977 RMK A01 T03230017  RH  014%=      5-min Rain = 0
KMUS 210110Z 21012KT 32/01 A2977 RMK A01 T03230012  RH  014%=      5-min Rain = 0
KMUS 210115Z 21017G23KT 33/M01 A2977 RMK A01 T03271006  RH  012%=      5-min Rain = 0
KMUS 210120Z 20016G21KT 33/M01 A2976 RMK A01 T03311006  RH  012%=      5-min Rain = 0
KMUS 210125Z 20010KT 33/00 A2977 RMK A01 T03250002  RH  013%=      5-min Rain = 0
KMUS 210130Z 19010KT 32/01 A2977 RMK A01 T03170009  RH  014%=      5-min Rain = 0
KMUS 210135Z 19011KT 31/01 A2977 RMK A01 T03120010  RH  015%=      5-min Rain = 0
KMUS 210140Z 19010KT 31/01 A2977 RMK A01 T03110011  RH  015%=      5-min Rain = 0
KMUS 210145Z 20009KT 30/03 A2977 RMK A01 T03020030  RH  018%=      5-min Rain = 0
KMUS 210150Z 19008KT 29/04 A2977 RMK A01 T02930037  RH  020%=      5-min Rain = 0
KMUS 210155Z 18008KT 29/05 A2977 RMK A01 T02850049  RH  023%=      5-min Rain = 0
KMUS 210200Z 19008KT 28/06 A2977 RMK A01 T02750055  RH  025%=      5-min Rain = 0
KMUS 210205Z 19008KT 27/06 A2977 RMK A01 T02680059  RH  027%=      5-min Rain = 0
KMUS 210210Z 19008KT 26/06 A2977 RMK A01 T02610064  RH  029%=      5-min Rain = 0
KMUS 210215Z 19008KT 25/07 A2977 RMK A01 T02540069  RH  032%=      5-min Rain = 0
KMUS 210220Z 19008KT 25/07 A2977 RMK A01 T02490070  RH  033%=      5-min Rain = 0
KMUS 210225Z 19008KT 25/07 A2977 RMK A01 T02470071  RH  033%=      5-min Rain = 0
KMUS 210230Z 18009KT 25/07 A2977 RMK A01 T02460069  RH  033%=      5-min Rain = 0
KMUS 210235Z 18008KT 24/07 A2977 RMK A01 T02440071  RH  034%=      5-min Rain = 0
KMUS 210240Z 18009KT 24/07 A2977 RMK A01 T02410072  RH  035%=      5-min Rain = 0
KMUS 210245Z 18009KT 24/07 A2977 RMK A01 T02400074  RH  036%=      5-min Rain = 0
KMUS 210250Z 18009KT 24/08 A2977 RMK A01 T02380075  RH  036%=      5-min Rain = 0
KMUS 210255Z 18009KT 24/07 A2977 RMK A01 T02380074  RH  036%=      5-min Rain = 0
KMUS 210300Z 19009KT 24/07 A2978 RMK A01 T02380074  RH  036%=      5-min Rain = 0
KMUS 210305Z 18009KT 24/07 A2978 RMK A01 T02370074  RH  036%=      5-min Rain = 0
KMUS 210310Z 18009KT 24/08 A2978 RMK A01 T02360075  RH  037%=      5-min Rain = 0
KMUS 210315Z 18010KT 23/08 A2978 RMK A01 T02340076  RH  037%=      5-min Rain = 0
KMUS 210320Z 19009KT 23/08 A2978 RMK A01 T02340075  RH  037%=      5-min Rain = 0
KMUS 210325Z 19009KT 23/07 A2978 RMK A01 T02330073  RH  037%=      5-min Rain = 0
KMUS 210330Z 19009KT 23/07 A2979 RMK A01 T02340071  RH  036%=      5-min Rain = 0
KMUS 210335Z 18009KT 23/07 A2979 RMK A01 T02330071  RH  036%=      5-min Rain = 0
KMUS 210340Z 18009KT 23/07 A2979 RMK A01 T02310071  RH  036%=      5-min Rain = 0
KMUS 210345Z 18010KT 23/07 A2979 RMK A01 T02310070  RH  036%=      5-min Rain = 0
KMUS 210350Z 18010KT 23/07 A2979 RMK A01 T02310070  RH  036%=      5-min Rain = 0
KMUS 210355Z 18010KT 23/07 A2979 RMK A01 T02310067  RH  036%=      5-min Rain = 0
KMUS 210400Z 19010KT 23/06 A2979 RMK A01 T02340059  RH  033%=      5-min Rain = 0
KMUS 210405Z 19010KT 24/06 A2979 RMK A01 T02350057  RH  032%=      5-min Rain = 0
KMUS 210410Z 19009KT 23/06 A2979 RMK A01 T02340058  RH  033%=      5-min Rain = 0
KMUS 210415Z 19010KT 23/05 A2979 RMK A01 T02340053  RH  032%=      5-min Rain = 0
KMUS 210420Z 19010KT 24/05 A2979 RMK A01 T02350052  RH  031%=      5-min Rain = 0
KMUS 210425Z 20011KT 24/05 A2979 RMK A01 T02360047  RH  030%=      5-min Rain = 0
KMUS 210430Z 19010KT 24/05 A2979 RMK A01 T02350047  RH  030%=      5-min Rain = 0
KMUS 210435Z 20010KT 23/05 A2979 RMK A01 T02320048  RH  031%=      5-min Rain = 0
KMUS 210440Z 20010KT 23/05 A2979 RMK A01 T02270049  RH  032%=      5-min Rain = 0
KMUS 210445Z 20010KT 22/05 A2979 RMK A01 T02240049  RH  033%=      5-min Rain = 0
KMUS 210450Z 20010KT 22/05 A2979 RMK A01 T02210050  RH  034%=      5-min Rain = 0
KMUS 210455Z 20010KT 22/05 A2979 RMK A01 T02200047  RH  033%=      5-min Rain = 0

Page generated in 0.0158 seconds.